Terminal Aerodrome Forecast
Issued by NWS

Home | Current Version | Previous Version | Text Only | Print | Product List | Glossary On
Versions: 1 2 3 4 5 6 7 8 9 10 11 12 13 14 15 16 17 18
000
FTUS41 KPBZ 211500 AAB
TAFLBE
TAF AMD
KLBE 211514Z 2115/2212 23010G16KT P6SM BKN020
     FM211800 23012G20KT P6SM SCT035 BKN050
     FM212200 27010G20KT P6SM VCSH SCT035 BKN050
      TEMPO 2122/2124 28015G25KT -TSRA BKN035CB
     FM220200 30010KT P6SM BKN050=

USA.gov is the U.S. government's official web portal to all federal, state and local government web resources and services.